Terminal Aerodrome Forecast (TAF)

TAF

Data at: 1110 UTC 12 Jun 2021

TAF for:NVSC (Sola/Vanua Lava Arpt, TO, NV) issued at 1000 UTC 12 Jun 2021
Text:TAF NVSC 121000Z 1212/1312 11010KT 9999 SCT020
Forecast period:1200 UTC 12 June 2021 to 1200 UTC 13 June 2021
Forecast type:FROM: standard forecast or significant change
Winds:from the ESE (110 degrees) at 12 MPH (10 knots; 5.1 m/s)
Visibility:6 or more sm (10+ km)
Ceiling:at least 12,000 feet AGL
Clouds: scattered clouds at 2000 feet AGL
Text:PROB30
Forecast period:1200 to 1800 UTC 12 June 2021
Forecast type:TEMPORARY: The following changes expected for less than half the time period
Visibility: 6 sm ( 9 km)
Ceiling:1800 feet AGL
Clouds: broken clouds at 1800 feet AGL
Weather:-SHRA (light rain showers)

TAF

Data at: 1110 UTC 12 Jun 2021

TAF for:NVSG (Longana Arpt, PA, NV) issued at 1000 UTC 12 Jun 2021
Text:TAF NVSG 121000Z 1212/1312 09008KT 9999 SCT020 BKN040
Forecast period:1200 UTC 12 June 2021 to 1200 UTC 13 June 2021
Forecast type:FROM: standard forecast or significant change
Winds:from the E (90 degrees) at 9 MPH (8 knots; 4.1 m/s)
Visibility:6 or more sm (10+ km)
Ceiling:4000 feet AGL
Clouds: scattered clouds at 2000 feet AGL, broken clouds at 4000 feet AGL
Text:PROB30
Forecast period:1200 to 1800 UTC 12 June 2021
Forecast type:TEMPORARY: The following changes expected for less than half the time period
Visibility: 6 sm ( 9 km)
Ceiling:1800 feet AGL
Clouds: broken clouds at 1800 feet AGL
Weather:-SHRA (light rain showers)

TAF

Data at: 1110 UTC 12 Jun 2021

TAF for:NVSS (Santo/Pekoa Intl, SA, NV) issued at 1000 UTC 12 Jun 2021
Text:TAF NVSS 121000Z 1212/1312 12005KT 9999 SCT020 BKN040
Forecast period:1200 UTC 12 June 2021 to 1200 UTC 13 June 2021
Forecast type:FROM: standard forecast or significant change
Winds:from the ESE (120 degrees) at 6 MPH (5 knots; 2.6 m/s)
Visibility:6 or more sm (10+ km)
Ceiling:4000 feet AGL
Clouds: scattered clouds at 2000 feet AGL, broken clouds at 4000 feet AGL
Text:PROB30
Forecast period:1200 to 1800 UTC 12 June 2021
Forecast type:TEMPORARY: The following changes expected for less than half the time period
Visibility: 6 sm ( 9 km)
Ceiling:1800 feet AGL
Clouds: broken clouds at 1800 feet AGL
Weather:-SHRA (light rain showers)

TAF

Data at: 1110 UTC 12 Jun 2021

TAF for:NVSL (Malekula Isl/Lamap, MA, NV) issued at 1000 UTC 12 Jun 2021
Text:TAF NVSL 121000Z 1212/1312 12006KT 9999 SCT020
Forecast period:1200 UTC 12 June 2021 to 1200 UTC 13 June 2021
Forecast type:FROM: standard forecast or significant change
Winds:from the ESE (120 degrees) at 7 MPH (6 knots; 3.1 m/s)
Visibility:6 or more sm (10+ km)
Ceiling:at least 12,000 feet AGL
Clouds: scattered clouds at 2000 feet AGL
Text:PROB30
Forecast period:1200 to 1800 UTC 12 June 2021
Forecast type:TEMPORARY: The following changes expected for less than half the time period
Visibility: 6 sm ( 9 km)
Ceiling:1800 feet AGL
Clouds: broken clouds at 1800 feet AGL
Weather:-SHRA (light rain showers)

TAF

Data at: 1110 UTC 12 Jun 2021

TAF for:NVSP (Norsup Arpt, MA, NV) issued at 1000 UTC 12 Jun 2021
Text:TAF NVSP 121000Z 1212/1312 12010KT 9999 SCT020
Forecast period:1200 UTC 12 June 2021 to 1200 UTC 13 June 2021
Forecast type:FROM: standard forecast or significant change
Winds:from the ESE (120 degrees) at 12 MPH (10 knots; 5.1 m/s)
Visibility:6 or more sm (10+ km)
Ceiling:at least 12,000 feet AGL
Clouds: scattered clouds at 2000 feet AGL
Text:PROB30
Forecast period:1200 to 1800 UTC 12 June 2021
Forecast type:TEMPORARY: The following changes expected for less than half the time period
Visibility: 6 sm ( 9 km)
Ceiling:1800 feet AGL
Clouds: broken clouds at 1800 feet AGL
Weather:-SHRA (light rain showers)

TAF

Data at: 1110 UTC 12 Jun 2021

TAF for:NVVV (Efate/Bauerfield Int, SE, NV) issued at 1000 UTC 12 Jun 2021
Text:TAF NVVV 121000Z 1212/1312 11005KT 9999 SCT020 BKN120
Forecast period:1200 UTC 12 June 2021 to 1200 UTC 13 June 2021
Forecast type:FROM: standard forecast or significant change
Winds:from the ESE (110 degrees) at 6 MPH (5 knots; 2.6 m/s)
Visibility:6 or more sm (10+ km)
Ceiling:12000 feet AGL
Clouds: scattered clouds at 2000 feet AGL, broken clouds at 12000 feet AGL
Text:PROB30
Forecast period:1200 to 1800 UTC 12 June 2021
Forecast type:TEMPORARY: The following changes expected for less than half the time period
Visibility: 6 sm ( 9 km)
Ceiling:1800 feet AGL
Clouds: broken clouds at 1800 feet AGL, overcast cloud deck at 10000 feet AGL
Weather:-SHRA (light rain showers)

TAF

Data at: 1110 UTC 12 Jun 2021

TAF for:NVVW (Tanna Arpt, TA, NV) issued at 1000 UTC 12 Jun 2021
Text:TAF NVVW 121000Z 1212/1312 VRB01KT 9999 SCT020 BKN120
Forecast period:1200 UTC 12 June 2021 to 1200 UTC 13 June 2021
Forecast type:FROM: standard forecast or significant change
Winds:variable direction winds at 1 MPH (1 knots; 0.5 m/s)
Visibility:6 or more sm (10+ km)
Ceiling:12000 feet AGL
Clouds: scattered clouds at 2000 feet AGL, broken clouds at 12000 feet AGL
Text:PROB30
Forecast period:1200 to 1800 UTC 12 June 2021
Forecast type:TEMPORARY: The following changes expected for less than half the time period
Visibility: 6 sm ( 9 km)
Ceiling:1800 feet AGL
Clouds: broken clouds at 1800 feet AGL, overcast cloud deck at 10000 feet AGL
Weather:-SHRA (light rain showers)

TAF

Data at: 1110 UTC 12 Jun 2021

TAF for:NVVA (Aneityum/Mystery Isl, TA, NV) issued at 1000 UTC 12 Jun 2021
Text:TAF NVVA 121000Z 1212/1312 09008KT 9999 SCT020 BKN045
Forecast period:1200 UTC 12 June 2021 to 1200 UTC 13 June 2021
Forecast type:FROM: standard forecast or significant change
Winds:from the E (90 degrees) at 9 MPH (8 knots; 4.1 m/s)
Visibility:6 or more sm (10+ km)
Ceiling:4500 feet AGL
Clouds: scattered clouds at 2000 feet AGL, broken clouds at 4500 feet AGL
Text:PROB30
Forecast period:1200 to 1800 UTC 12 June 2021
Forecast type:TEMPORARY: The following changes expected for less than half the time period
Visibility: 6 sm ( 9 km)
Ceiling:1800 feet AGL
Clouds: broken clouds at 1800 feet AGL, overcast cloud deck at 4000 feet AGL
Weather:-SHRA (light rain showers)

TAF

Data at: 1115 UTC 12 Jun 2021

TAF NVVV 121000Z 1212/1312 11005KT 9999 SCT020 BKN120
  PROB30
  INTER 1212/1218 9000 -SHRA BKN018 OVC100
TAF NVSC 121000Z 1212/1312 11010KT 9999 SCT020
  PROB30
  INTER 1212/1218 9000 -SHRA BKN018
TAF NVSG 121000Z 1212/1312 09008KT 9999 SCT020 BKN040
  PROB30
  INTER 1212/1218 9000 -SHRA BKN018
TAF NVSS 121000Z 1212/1312 12005KT 9999 SCT020 BKN040
  PROB30
  INTER 1212/1218 9000 -SHRA BKN018
TAF NVSL 121000Z 1212/1312 12006KT 9999 SCT020
  PROB30
  INTER 1212/1218 9000 -SHRA BKN018
TAF NVSP 121000Z 1212/1312 12010KT 9999 SCT020
  PROB30
  INTER 1212/1218 9000 -SHRA BKN018
TAF NVVW 121000Z 1212/1312 VRB01KT 9999 SCT020 BKN120
  PROB30
  INTER 1212/1218 9000 -SHRA BKN018 OVC100
TAF NVVA 121000Z 1212/1312 09008KT 9999 SCT020 BKN045
  PROB30
  INTER 1212/1218 9000 -SHRA BKN018 OVC040